DAL1333 KATL-KMKE
Flight info
| Callsign | DAL1333 |
|---|---|
| Flight time | 1h 37m |
| Altitude | 34000 |
| Route | PENCL2 JAACE TTH LEEDN GOPAC3 |
| Aircraft | B739/M-SDE2E3FGHIRWXY/LB1 |
Departure
| Time | 2026-05-04 16:16 |
|---|---|
| Airport | Hartsfield Jackson Atlanta International Airport (KATL) |
Arrival
| Time | 2026-05-04 17:54 |
|---|---|
| Airport | General Mitchell International Airport (KMKE) |
| Time | Latitude | Longitude | Altitude | Speed | Heading |
|---|---|---|---|---|---|
| 2026-05-04 15:46 | 33.64232 | -84.43206 | 1005 ft | 0 kts | 271° |
| 2026-05-04 16:05 | 33.64232 | -84.43170 | 1000 ft | 4 kts | 282° |
| 2026-05-04 16:06 | 33.64222 | -84.43142 | 1005 ft | 4 kts | 319° |
| 2026-05-04 16:06 | 33.64194 | -84.43131 | 1005 ft | 0 kts | 1° |
| 2026-05-04 16:08 | 33.64196 | -84.43131 | 1005 ft | 1 kts | 1° |
| 2026-05-04 16:09 | 33.64277 | -84.43130 | 1005 ft | 9 kts | 360° |
| 2026-05-04 16:09 | 33.64401 | -84.43130 | 1005 ft | 9 kts | 4° |
| 2026-05-04 16:10 | 33.64460 | -84.42989 | 1005 ft | 13 kts | 90° |
| 2026-05-04 16:11 | 33.64469 | -84.42599 | 1005 ft | 17 kts | 90° |
| 2026-05-04 16:11 | 33.64469 | -84.42451 | 1005 ft | 18 kts | 90° |
| 2026-05-04 16:12 | 33.64541 | -84.42099 | 1005 ft | 13 kts | 80° |
| 2026-05-04 16:12 | 33.64543 | -84.41756 | 1006 ft | 13 kts | 90° |
| 2026-05-04 16:13 | 33.64543 | -84.41481 | 1006 ft | 20 kts | 90° |
| 2026-05-04 16:13 | 33.64543 | -84.41150 | 1006 ft | 19 kts | 90° |
| 2026-05-04 16:14 | 33.64544 | -84.40847 | 1005 ft | 17 kts | 81° |
| 2026-05-04 16:14 | 33.64574 | -84.40599 | 1004 ft | 11 kts | 72° |
| 2026-05-04 16:15 | 33.64680 | -84.40879 | 1005 ft | 60 kts | 270° |
| 2026-05-04 16:16 | 33.64673 | -84.42844 | 1048 ft | 164 kts | 269° |
| 2026-05-04 16:16 | 33.65022 | -84.47265 | 2755 ft | 189 kts | 299° |
| 2026-05-04 16:17 | 33.66331 | -84.50412 | 3268 ft | 230 kts | 294° |
| 2026-05-04 16:18 | 33.68577 | -84.56146 | 4998 ft | 265 kts | 303° |
| 2026-05-04 16:18 | 33.69957 | -84.57622 | 5708 ft | 272 kts | 333° |
| 2026-05-04 16:19 | 33.75765 | -84.58204 | 7937 ft | 286 kts | 1° |
| 2026-05-04 16:19 | 33.79790 | -84.58093 | 9444 ft | 292 kts | 1° |
| 2026-05-04 16:20 | 33.86229 | -84.58398 | 10621 ft | 338 kts | 347° |
| 2026-05-04 16:20 | 33.91039 | -84.59972 | 10950 ft | 378 kts | 342° |
| 2026-05-04 16:21 | 33.98895 | -84.62675 | 12493 ft | 396 kts | 343° |
| 2026-05-04 16:22 | 34.04230 | -84.64422 | 13766 ft | 400 kts | 343° |
| 2026-05-04 16:22 | 34.12322 | -84.67041 | 15543 ft | 402 kts | 342° |
| 2026-05-04 16:23 | 34.20461 | -84.69680 | 17180 ft | 406 kts | 342° |
| 2026-05-04 16:24 | 34.31320 | -84.73633 | 19084 ft | 410 kts | 337° |
| 2026-05-04 16:25 | 34.36720 | -84.75992 | 19894 ft | 415 kts | 336° |
| 2026-05-04 16:26 | 34.47696 | -84.80703 | 21548 ft | 423 kts | 336° |
| 2026-05-04 16:26 | 34.56089 | -84.84268 | 22632 ft | 430 kts | 336° |
| 2026-05-04 16:27 | 34.61759 | -84.86678 | 23366 ft | 434 kts | 336° |
| 2026-05-04 16:28 | 34.70349 | -84.90338 | 24340 ft | 439 kts | 336° |
| 2026-05-04 16:28 | 34.79056 | -84.94056 | 25207 ft | 445 kts | 336° |
| 2026-05-04 16:29 | 34.90822 | -84.99094 | 26439 ft | 450 kts | 336° |
| 2026-05-04 16:30 | 34.99620 | -85.02869 | 27706 ft | 445 kts | 336° |
| 2026-05-04 16:31 | 35.05459 | -85.05382 | 28529 ft | 444 kts | 336° |
| 2026-05-04 16:31 | 35.13341 | -85.10637 | 29795 ft | 426 kts | 308° |
| 2026-05-04 16:32 | 35.18768 | -85.19070 | 30932 ft | 422 kts | 305° |
| 2026-05-04 16:33 | 35.22366 | -85.24715 | 31631 ft | 419 kts | 306° |
| 2026-05-04 16:33 | 35.25968 | -85.30309 | 32278 ft | 418 kts | 306° |
| 2026-05-04 16:34 | 35.29563 | -85.35878 | 32904 ft | 416 kts | 306° |
| 2026-05-04 16:34 | 35.31353 | -85.38652 | 33215 ft | 415 kts | 306° |
| 2026-05-04 16:35 | 35.36706 | -85.46962 | 34106 ft | 413 kts | 305° |
| 2026-05-04 16:35 | 35.42046 | -85.55274 | 34119 ft | 412 kts | 305° |
| 2026-05-04 16:36 | 35.47347 | -85.63547 | 34080 ft | 410 kts | 305° |
| 2026-05-04 16:37 | 35.52626 | -85.71796 | 34073 ft | 409 kts | 307° |
| 2026-05-04 16:37 | 35.57254 | -85.75927 | 34031 ft | 424 kts | 334° |
| 2026-05-04 16:38 | 35.62919 | -85.78079 | 34074 ft | 428 kts | 339° |
| 2026-05-04 16:39 | 35.77273 | -85.83099 | 34062 ft | 429 kts | 338° |
| 2026-05-04 16:40 | 35.88729 | -85.87247 | 34060 ft | 428 kts | 338° |
| 2026-05-04 16:41 | 36.02991 | -85.92444 | 34048 ft | 427 kts | 338° |
| 2026-05-04 16:43 | 36.17166 | -85.97625 | 34048 ft | 425 kts | 338° |
| 2026-05-04 16:43 | 36.25687 | -86.00750 | 34049 ft | 426 kts | 338° |
| 2026-05-04 16:45 | 36.42799 | -86.07048 | 34026 ft | 430 kts | 338° |
| 2026-05-04 16:46 | 36.57194 | -86.12365 | 34020 ft | 432 kts | 338° |
| 2026-05-04 16:47 | 36.68720 | -86.16637 | 34026 ft | 432 kts | 337° |
| 2026-05-04 16:48 | 36.79248 | -86.20552 | 33995 ft | 431 kts | 337° |
| 2026-05-04 16:49 | 36.90711 | -86.24828 | 33989 ft | 429 kts | 337° |
| 2026-05-04 16:50 | 37.02137 | -86.29103 | 33988 ft | 428 kts | 337° |
| 2026-05-04 16:51 | 37.10677 | -86.32307 | 33982 ft | 426 kts | 337° |
| 2026-05-04 16:52 | 37.22023 | -86.36576 | 33977 ft | 425 kts | 337° |
| 2026-05-04 16:53 | 37.30506 | -86.39776 | 33963 ft | 424 kts | 337° |
| 2026-05-04 16:54 | 37.41776 | -86.44040 | 33960 ft | 422 kts | 337° |
| 2026-05-04 16:55 | 37.58578 | -86.50421 | 33940 ft | 420 kts | 336° |
| 2026-05-04 16:56 | 37.72533 | -86.55745 | 33938 ft | 419 kts | 336° |
| 2026-05-04 16:57 | 37.80887 | -86.58941 | 33917 ft | 417 kts | 336° |
| 2026-05-04 16:58 | 37.91996 | -86.63204 | 33948 ft | 418 kts | 337° |
| 2026-05-04 17:00 | 38.08737 | -86.69654 | 33904 ft | 420 kts | 336° |
| 2026-05-04 17:01 | 38.22752 | -86.75078 | 33907 ft | 424 kts | 338° |
| 2026-05-04 17:02 | 38.34074 | -86.79475 | 33903 ft | 427 kts | 338° |
| 2026-05-04 17:03 | 38.42582 | -86.82788 | 33889 ft | 429 kts | 338° |
| 2026-05-04 17:03 | 38.51142 | -86.86128 | 33885 ft | 429 kts | 338° |
| 2026-05-04 17:04 | 38.62546 | -86.90593 | 33888 ft | 428 kts | 338° |
| 2026-05-04 17:05 | 38.73928 | -86.95065 | 33871 ft | 428 kts | 338° |
| 2026-05-04 17:06 | 38.82445 | -86.98421 | 33868 ft | 427 kts | 338° |
| 2026-05-04 17:07 | 38.90016 | -87.01411 | 33862 ft | 428 kts | 338° |
| 2026-05-04 17:07 | 38.96662 | -87.04041 | 33857 ft | 428 kts | 338° |
| 2026-05-04 17:08 | 39.05193 | -87.07425 | 33851 ft | 428 kts | 338° |
| 2026-05-04 17:09 | 39.10884 | -87.09687 | 33857 ft | 428 kts | 338° |
| 2026-05-04 17:09 | 39.16598 | -87.11964 | 33837 ft | 431 kts | 338° |
| 2026-05-04 17:10 | 39.30885 | -87.17668 | 33831 ft | 431 kts | 338° |
| 2026-05-04 17:11 | 39.36620 | -87.19966 | 33832 ft | 432 kts | 338° |
| 2026-05-04 17:12 | 39.45246 | -87.23429 | 33820 ft | 434 kts | 338° |
| 2026-05-04 17:13 | 39.59484 | -87.29738 | 33823 ft | 432 kts | 335° |
| 2026-05-04 17:14 | 39.70800 | -87.35072 | 33823 ft | 433 kts | 335° |
| 2026-05-04 17:15 | 39.79313 | -87.39051 | 33823 ft | 434 kts | 336° |
| 2026-05-04 17:16 | 39.90686 | -87.44375 | 33803 ft | 435 kts | 336° |
| 2026-05-04 17:17 | 40.02030 | -87.49706 | 33793 ft | 435 kts | 336° |
| 2026-05-04 17:18 | 40.13430 | -87.55084 | 33785 ft | 435 kts | 336° |
| 2026-05-04 17:19 | 40.24825 | -87.60477 | 33796 ft | 435 kts | 336° |
| 2026-05-04 17:20 | 40.36223 | -87.65893 | 33774 ft | 436 kts | 336° |
| 2026-05-04 17:20 | 40.44777 | -87.69969 | 33751 ft | 436 kts | 336° |
| 2026-05-04 17:21 | 40.56215 | -87.75438 | 33722 ft | 438 kts | 336° |
| 2026-05-04 17:22 | 40.61942 | -87.78184 | 33715 ft | 439 kts | 336° |
| 2026-05-04 17:23 | 40.73436 | -87.83709 | 33712 ft | 440 kts | 336° |
| 2026-05-04 17:24 | 40.82066 | -87.87871 | 33703 ft | 441 kts | 336° |
| 2026-05-04 17:25 | 40.93582 | -87.93442 | 33713 ft | 441 kts | 336° |
| 2026-05-04 17:26 | 41.05091 | -87.99032 | 33698 ft | 440 kts | 336° |
| 2026-05-04 17:26 | 41.13719 | -88.03236 | 33346 ft | 445 kts | 336° |
| 2026-05-04 17:27 | 41.19490 | -88.06056 | 32268 ft | 443 kts | 336° |
| 2026-05-04 17:27 | 41.25258 | -88.08876 | 31247 ft | 442 kts | 336° |
| 2026-05-04 17:28 | 41.31042 | -88.11711 | 30245 ft | 443 kts | 336° |
| 2026-05-04 17:29 | 41.39738 | -88.15985 | 28656 ft | 445 kts | 336° |
| 2026-05-04 17:29 | 41.48518 | -88.20314 | 27043 ft | 453 kts | 336° |
| 2026-05-04 17:30 | 41.57288 | -88.24644 | 25531 ft | 443 kts | 336° |
| 2026-05-04 17:31 | 41.63025 | -88.27487 | 24549 ft | 436 kts | 335° |
| 2026-05-04 17:31 | 41.71553 | -88.31433 | 23692 ft | 435 kts | 344° |
| 2026-05-04 17:32 | 41.77626 | -88.32143 | 23290 ft | 439 kts | 353° |
| 2026-05-04 17:33 | 41.86765 | -88.32598 | 21950 ft | 436 kts | 353° |
| 2026-05-04 17:33 | 41.89791 | -88.32774 | 21475 ft | 434 kts | 352° |
| 2026-05-04 17:34 | 41.98771 | -88.33337 | 20118 ft | 427 kts | 352° |
| 2026-05-04 17:34 | 42.01728 | -88.33527 | 19685 ft | 424 kts | 352° |
| 2026-05-04 17:35 | 42.10481 | -88.34087 | 18506 ft | 415 kts | 352° |
| 2026-05-04 17:35 | 42.16184 | -88.34452 | 18028 ft | 409 kts | 352° |
| 2026-05-04 17:35 | 42.19039 | -88.34639 | 17713 ft | 412 kts | 352° |
| 2026-05-04 17:36 | 42.20934 | -88.34761 | 17452 ft | 411 kts | 352° |
| 2026-05-04 17:36 | 42.23770 | -88.34941 | 17094 ft | 407 kts | 352° |
| 2026-05-04 17:36 | 42.26589 | -88.35173 | 17054 ft | 404 kts | 350° |
| 2026-05-04 17:36 | 42.29340 | -88.35511 | 17026 ft | 389 kts | 349° |
| 2026-05-04 17:37 | 42.31976 | -88.35849 | 16947 ft | 374 kts | 348° |
| 2026-05-04 17:37 | 42.35360 | -88.36266 | 16458 ft | 365 kts | 349° |
| 2026-05-04 17:37 | 42.37890 | -88.36621 | 15627 ft | 370 kts | 347° |
| 2026-05-04 17:37 | 42.40494 | -88.37078 | 14548 ft | 384 kts | 347° |
| 2026-05-04 17:38 | 42.42290 | -88.37406 | 14141 ft | 384 kts | 347° |
| 2026-05-04 17:38 | 42.44915 | -88.37877 | 13655 ft | 375 kts | 347° |
| 2026-05-04 17:38 | 42.47459 | -88.38322 | 13214 ft | 363 kts | 347° |
| 2026-05-04 17:38 | 42.49919 | -88.38748 | 12769 ft | 349 kts | 347° |
| 2026-05-04 17:39 | 42.54553 | -88.39546 | 12058 ft | 322 kts | 347° |
| 2026-05-04 17:39 | 42.56715 | -88.39921 | 12023 ft | 306 kts | 346° |
| 2026-05-04 17:39 | 42.58798 | -88.40286 | 11745 ft | 302 kts | 346° |
| 2026-05-04 17:40 | 42.60861 | -88.40651 | 11547 ft | 296 kts | 346° |
| 2026-05-04 17:40 | 42.62893 | -88.41010 | 11340 ft | 293 kts | 347° |
| 2026-05-04 17:40 | 42.64900 | -88.41362 | 11166 ft | 289 kts | 347° |
| 2026-05-04 17:40 | 42.66887 | -88.41711 | 10992 ft | 287 kts | 347° |
| 2026-05-04 17:41 | 42.68831 | -88.42057 | 10825 ft | 284 kts | 345° |
| 2026-05-04 17:41 | 42.70767 | -88.42497 | 10660 ft | 280 kts | 344° |
| 2026-05-04 17:41 | 42.72688 | -88.42969 | 10507 ft | 281 kts | 344° |
| 2026-05-04 17:41 | 42.74649 | -88.43236 | 10328 ft | 291 kts | 359° |
| 2026-05-04 17:42 | 42.76667 | -88.42803 | 10192 ft | 294 kts | 5° |
| 2026-05-04 17:42 | 42.78656 | -88.42310 | 10002 ft | 288 kts | 4° |
| 2026-05-04 17:42 | 42.80563 | -88.41507 | 9796 ft | 291 kts | 25° |
| 2026-05-04 17:42 | 42.82039 | -88.39624 | 9642 ft | 295 kts | 53° |
| 2026-05-04 17:43 | 42.82886 | -88.37086 | 9493 ft | 296 kts | 68° |
| 2026-05-04 17:43 | 42.83538 | -88.34419 | 9320 ft | 300 kts | 69° |
| 2026-05-04 17:43 | 42.84203 | -88.31703 | 9142 ft | 304 kts | 69° |
| 2026-05-04 17:43 | 42.84883 | -88.28971 | 8948 ft | 305 kts | 68° |
| 2026-05-04 17:44 | 42.85486 | -88.26198 | 8755 ft | 306 kts | 77° |
| 2026-05-04 17:44 | 42.85761 | -88.23325 | 8588 ft | 305 kts | 84° |
| 2026-05-04 17:44 | 42.85930 | -88.20445 | 8392 ft | 304 kts | 84° |
| 2026-05-04 17:44 | 42.86084 | -88.17585 | 8220 ft | 301 kts | 84° |
| 2026-05-04 17:45 | 42.86247 | -88.14745 | 8041 ft | 299 kts | 84° |
| 2026-05-04 17:45 | 42.86419 | -88.11932 | 7880 ft | 297 kts | 84° |
| 2026-05-04 17:45 | 42.86600 | -88.09126 | 7705 ft | 297 kts | 84° |
| 2026-05-04 17:45 | 42.86785 | -88.06322 | 7560 ft | 297 kts | 84° |
| 2026-05-04 17:46 | 42.86975 | -88.03510 | 7387 ft | 299 kts | 84° |
| 2026-05-04 17:46 | 42.87169 | -88.00673 | 7221 ft | 301 kts | 84° |
| 2026-05-04 17:46 | 42.87362 | -87.97835 | 7055 ft | 301 kts | 84° |
| 2026-05-04 17:46 | 42.87555 | -87.95009 | 6863 ft | 297 kts | 84° |
| 2026-05-04 17:47 | 42.87743 | -87.92235 | 6691 ft | 291 kts | 84° |
| 2026-05-04 17:47 | 42.87928 | -87.89523 | 6519 ft | 284 kts | 84° |
| 2026-05-04 17:47 | 42.88106 | -87.86879 | 6359 ft | 277 kts | 84° |
| 2026-05-04 17:47 | 42.88281 | -87.84284 | 6207 ft | 272 kts | 84° |
| 2026-05-04 17:48 | 42.88449 | -87.81745 | 6070 ft | 265 kts | 84° |
| 2026-05-04 17:48 | 42.88815 | -87.79289 | 5741 ft | 266 kts | 69° |
| 2026-05-04 17:48 | 42.89444 | -87.76920 | 5373 ft | 265 kts | 70° |
| 2026-05-04 17:48 | 42.90046 | -87.74568 | 4997 ft | 261 kts | 70° |
| 2026-05-04 17:49 | 42.90885 | -87.72400 | 4583 ft | 258 kts | 49° |
| 2026-05-04 17:49 | 42.92251 | -87.70910 | 4231 ft | 249 kts | 21° |
| 2026-05-04 17:49 | 42.93850 | -87.70395 | 3898 ft | 233 kts | 353° |
| 2026-05-04 17:49 | 42.95399 | -87.70759 | 3566 ft | 215 kts | 330° |
| 2026-05-04 17:50 | 42.96608 | -87.71783 | 3306 ft | 196 kts | 307° |
| 2026-05-04 17:50 | 42.97354 | -87.73218 | 3048 ft | 179 kts | 286° |
| 2026-05-04 17:50 | 42.97686 | -87.74801 | 2817 ft | 168 kts | 270° |
| 2026-05-04 17:50 | 42.97646 | -87.76338 | 2581 ft | 163 kts | 255° |
| 2026-05-04 17:51 | 42.97318 | -87.77816 | 2385 ft | 163 kts | 248° |
| 2026-05-04 17:51 | 42.96959 | -87.79273 | 2157 ft | 158 kts | 248° |
| 2026-05-04 17:51 | 42.96626 | -87.80630 | 1978 ft | 144 kts | 249° |
| 2026-05-04 17:51 | 42.96325 | -87.81868 | 1770 ft | 134 kts | 248° |
| 2026-05-04 17:52 | 42.96034 | -87.83057 | 1595 ft | 132 kts | 248° |
| 2026-05-04 17:52 | 42.95744 | -87.84248 | 1424 ft | 132 kts | 248° |
| 2026-05-04 17:52 | 42.95459 | -87.85442 | 1289 ft | 131 kts | 246° |
| 2026-05-04 17:52 | 42.95165 | -87.86621 | 1090 ft | 132 kts | 248° |
| 2026-05-04 17:53 | 42.94871 | -87.87846 | 921 ft | 140 kts | 248° |
| 2026-05-04 17:53 | 42.94564 | -87.89099 | 713 ft | 131 kts | 248° |
| 2026-05-04 17:53 | 42.94303 | -87.90155 | 686 ft | 99 kts | 252° |
| 2026-05-04 17:53 | 42.94136 | -87.90840 | 685 ft | 51 kts | 251° |
| 2026-05-04 17:54 | 42.94096 | -87.91057 | 682 ft | 19 kts | 272° |
| 2026-05-04 17:54 | 42.94176 | -87.91135 | 682 ft | 13 kts | 39° |
| 2026-05-04 17:54 | 42.94208 | -87.91024 | 687 ft | 13 kts | 73° |
| 2026-05-04 17:54 | 42.94234 | -87.90910 | 686 ft | 13 kts | 71° |
| 2026-05-04 17:55 | 42.94267 | -87.90777 | 687 ft | 17 kts | 72° |
| 2026-05-04 17:55 | 42.94332 | -87.90634 | 682 ft | 18 kts | 41° |
| 2026-05-04 17:55 | 42.94405 | -87.90505 | 682 ft | 17 kts | 73° |
| 2026-05-04 17:55 | 42.94442 | -87.90352 | 687 ft | 17 kts | 71° |
| 2026-05-04 17:56 | 42.94467 | -87.90201 | 684 ft | 16 kts | 78° |
| 2026-05-04 17:56 | 42.94501 | -87.90060 | 687 ft | 15 kts | 70° |
| 2026-05-04 17:56 | 42.94535 | -87.89924 | 682 ft | 15 kts | 69° |
| 2026-05-04 17:56 | 42.94590 | -87.89789 | 681 ft | 18 kts | 54° |
| 2026-05-04 17:57 | 42.94715 | -87.89758 | 683 ft | 21 kts | 321° |
| 2026-05-04 17:57 | 42.94731 | -87.89815 | 684 ft | 0 kts | 271° |